sensor_id;sensor_type;location;lat;lon;timestamp;P1;durP1;ratioP1;P2;durP2;ratioP2
52268;SDS011;38224;50.950;4.100;2022-09-23T00:01:04;12.60;;;7.75;;
52268;SDS011;38224;50.950;4.100;2022-09-23T00:03:30;13.98;;;8.60;;
52268;SDS011;38224;50.950;4.100;2022-09-23T00:05:59;16.98;;;7.90;;
52268;SDS011;38224;50.950;4.100;2022-09-23T00:08:24;15.75;;;8.77;;
52268;SDS011;38224;50.950;4.100;2022-09-23T00:10:49;15.57;;;8.25;;
52268;SDS011;38224;50.950;4.100;2022-09-23T00:13:15;16.02;;;8.82;;
52268;SDS011;38224;50.950;4.100;2022-09-23T00:15:40;17.17;;;8.95;;
52268;SDS011;38224;50.950;4.100;2022-09-23T00:18:05;14.47;;;8.87;;
52268;SDS011;38224;50.950;4.100;2022-09-23T00:20:32;16.63;;;9.15;;
52268;SDS011;38224;50.950;4.100;2022-09-23T00:22:58;22.13;;;8.75;;
52268;SDS011;38224;50.950;4.100;2022-09-23T00:25:23;14.43;;;8.77;;
52268;SDS011;38224;50.950;4.100;2022-09-23T00:27:49;17.92;;;9.32;;
52268;SDS011;38224;50.950;4.100;2022-09-23T00:30:14;16.63;;;9.90;;
52268;SDS011;38224;50.950;4.100;2022-09-23T00:32:39;20.45;;;10.40;;
52268;SDS011;38224;50.950;4.100;2022-09-23T00:35:05;20.47;;;9.37;;
52268;SDS011;38224;50.950;4.100;2022-09-23T00:37:30;16.13;;;9.27;;
52268;SDS011;38224;50.950;4.100;2022-09-23T00:39:55;14.23;;;8.68;;
52268;SDS011;38224;50.950;4.100;2022-09-23T00:42:21;14.52;;;8.15;;
52268;SDS011;38224;50.950;4.100;2022-09-23T00:49:37;14.33;;;8.27;;
52268;SDS011;38224;50.950;4.100;2022-09-23T00:52:06;17.05;;;9.32;;
52268;SDS011;38224;50.950;4.100;2022-09-23T00:54:33;16.70;;;8.80;;
52268;SDS011;38224;50.950;4.100;2022-09-23T00:56:58;17.58;;;8.57;;
52268;SDS011;38224;50.950;4.100;2022-09-23T00:59:24;13.68;;;7.80;;
52268;SDS011;38224;50.950;4.100;2022-09-23T01:01:51;17.55;;;9.32;;
52268;SDS011;38224;50.950;4.100;2022-09-23T01:04:18;14.80;;;8.00;;
52268;SDS011;38224;50.950;4.100;2022-09-23T01:06:44;13.10;;;7.68;;
52268;SDS011;38224;50.950;4.100;2022-09-23T01:09:09;14.63;;;8.23;;
52268;SDS011;38224;50.950;4.100;2022-09-23T01:11:35;12.03;;;7.73;;
52268;SDS011;38224;50.950;4.100;2022-09-23T01:21:50;14.05;;;7.70;;
52268;SDS011;38224;50.950;4.100;2022-09-23T01:34:32;17.85;;;9.13;;
52268;SDS011;38224;50.950;4.100;2022-09-23T01:37:09;15.20;;;8.85;;
52268;SDS011;38224;50.950;4.100;2022-09-23T01:39:43;17.13;;;9.27;;
52268;SDS011;38224;50.950;4.100;2022-09-23T01:42:16;14.95;;;8.50;;
52268;SDS011;38224;50.950;4.100;2022-09-23T01:47:25;14.32;;;7.80;;
52268;SDS011;38224;50.950;4.100;2022-09-23T01:49:59;21.02;;;8.52;;
52268;SDS011;38224;50.950;4.100;2022-09-23T01:55:00;14.88;;;8.73;;
52268;SDS011;38224;50.950;4.100;2022-09-23T01:59:53;14.03;;;9.13;;
52268;SDS011;38224;50.950;4.100;2022-09-23T02:02:28;14.30;;;9.15;;
52268;SDS011;38224;50.950;4.100;2022-09-23T02:05:00;15.80;;;8.82;;
52268;SDS011;38224;50.950;4.100;2022-09-23T02:07:28;17.25;;;9.30;;
52268;SDS011;38224;50.950;4.100;2022-09-23T02:10:02;20.10;;;9.57;;
52268;SDS011;38224;50.950;4.100;2022-09-23T02:12:29;15.48;;;9.18;;
52268;SDS011;38224;50.950;4.100;2022-09-23T02:15:31;16.95;;;9.02;;
52268;SDS011;38224;50.950;4.100;2022-09-23T02:17:50;20.55;;;9.02;;
52268;SDS011;38224;50.950;4.100;2022-09-23T02:20:23;24.15;;;9.15;;
52268;SDS011;38224;50.950;4.100;2022-09-23T02:22:58;17.65;;;9.88;;
52268;SDS011;38224;50.950;4.100;2022-09-23T02:25:28;14.13;;;8.60;;
52268;SDS011;38224;50.950;4.100;2022-09-23T02:30:48;13.25;;;8.63;;
52268;SDS011;38224;50.950;4.100;2022-09-23T02:33:26;15.60;;;8.32;;
52268;SDS011;38224;50.950;4.100;2022-09-23T02:35:55;16.50;;;7.75;;
52268;SDS011;38224;50.950;4.100;2022-09-23T02:41:24;14.38;;;8.25;;
52268;SDS011;38224;50.950;4.100;2022-09-23T02:44:01;17.23;;;8.20;;
52268;SDS011;38224;50.950;4.100;2022-09-23T02:46:28;15.95;;;8.20;;
52268;SDS011;38224;50.950;4.100;2022-09-23T02:48:55;15.27;;;8.73;;
52268;SDS011;38224;50.950;4.100;2022-09-23T02:51:24;12.38;;;8.52;;
52268;SDS011;38224;50.950;4.100;2022-09-23T02:53:52;15.70;;;8.93;;
52268;SDS011;38224;50.950;4.100;2022-09-23T02:56:20;13.85;;;8.68;;
52268;SDS011;38224;50.950;4.100;2022-09-23T02:58:46;15.52;;;8.77;;
52268;SDS011;38224;50.950;4.100;2022-09-23T03:08:54;11.90;;;8.07;;
52268;SDS011;38224;50.950;4.100;2022-09-23T03:11:21;15.88;;;8.48;;
52268;SDS011;38224;50.950;4.100;2022-09-23T03:21:57;14.18;;;8.85;;
52268;SDS011;38224;50.950;4.100;2022-09-23T03:24:26;19.33;;;8.57;;
52268;SDS011;38224;50.950;4.100;2022-09-23T03:26:54;13.30;;;8.50;;
52268;SDS011;38224;50.950;4.100;2022-09-23T03:29:19;19.52;;;9.57;;
52268;SDS011;38224;50.950;4.100;2022-09-23T03:31:45;13.95;;;8.35;;
52268;SDS011;38224;50.950;4.100;2022-09-23T03:34:22;16.00;;;8.23;;
52268;SDS011;38224;50.950;4.100;2022-09-23T03:36:53;15.70;;;8.60;;
52268;SDS011;38224;50.950;4.100;2022-09-23T03:39:30;14.45;;;8.55;;
52268;SDS011;38224;50.950;4.100;2022-09-23T03:41:57;16.23;;;8.73;;
52268;SDS011;38224;50.950;4.100;2022-09-23T03:44:24;15.85;;;9.65;;
52268;SDS011;38224;50.950;4.100;2022-09-23T03:46:53;20.65;;;8.98;;
52268;SDS011;38224;50.950;4.100;2022-09-23T03:49:22;16.40;;;8.35;;
52268;SDS011;38224;50.950;4.100;2022-09-23T03:51:49;15.73;;;8.00;;
52268;SDS011;38224;50.950;4.100;2022-09-23T03:54:14;14.02;;;8.15;;
52268;SDS011;38224;50.950;4.100;2022-09-23T03:56:39;15.43;;;8.02;;
52268;SDS011;38224;50.950;4.100;2022-09-23T03:59:05;14.15;;;8.50;;
52268;SDS011;38224;50.950;4.100;2022-09-23T04:01:30;12.83;;;8.63;;
52268;SDS011;38224;50.950;4.100;2022-09-23T04:03:55;11.88;;;8.35;;
52268;SDS011;38224;50.950;4.100;2022-09-23T04:06:20;15.70;;;9.37;;
52268;SDS011;38224;50.950;4.100;2022-09-23T04:08:46;13.10;;;7.95;;
52268;SDS011;38224;50.950;4.100;2022-09-23T04:11:11;10.52;;;7.55;;
52268;SDS011;38224;50.950;4.100;2022-09-23T04:13:36;12.23;;;7.90;;
52268;SDS011;38224;50.950;4.100;2022-09-23T04:16:02;14.80;;;8.27;;
52268;SDS011;38224;50.950;4.100;2022-09-23T04:18:27;15.07;;;8.15;;
52268;SDS011;38224;50.950;4.100;2022-09-23T04:20:59;14.40;;;8.17;;
52268;SDS011;38224;50.950;4.100;2022-09-23T04:23:25;12.88;;;7.93;;
52268;SDS011;38224;50.950;4.100;2022-09-23T04:25:50;14.73;;;8.00;;
52268;SDS011;38224;50.950;4.100;2022-09-23T04:28:16;16.20;;;7.82;;
52268;SDS011;38224;50.950;4.100;2022-09-23T04:30:41;14.23;;;7.77;;
52268;SDS011;38224;50.950;4.100;2022-09-23T04:33:08;14.93;;;7.47;;
52268;SDS011;38224;50.950;4.100;2022-09-23T04:35:33;15.23;;;8.05;;
52268;SDS011;38224;50.950;4.100;2022-09-23T04:37:58;11.93;;;7.95;;
52268;SDS011;38224;50.950;4.100;2022-09-23T04:40:24;19.03;;;7.40;;
52268;SDS011;38224;50.950;4.100;2022-09-23T04:42:49;14.30;;;7.27;;
52268;SDS011;38224;50.950;4.100;2022-09-23T04:45:14;10.27;;;7.47;;
52268;SDS011;38224;50.950;4.100;2022-09-23T04:47:40;14.43;;;7.50;;
52268;SDS011;38224;50.950;4.100;2022-09-23T04:50:05;13.07;;;7.27;;
52268;SDS011;38224;50.950;4.100;2022-09-23T04:52:30;10.05;;;6.80;;
52268;SDS011;38224;50.950;4.100;2022-09-23T04:54:55;11.73;;;6.73;;
52268;SDS011;38224;50.950;4.100;2022-09-23T04:57:21;10.05;;;6.90;;
52268;SDS011;38224;50.950;4.100;2022-09-23T04:59:47;14.70;;;7.40;;
52268;SDS011;38224;50.950;4.100;2022-09-23T05:02:12;15.05;;;7.07;;
52268;SDS011;38224;50.950;4.100;2022-09-23T05:04:38;10.07;;;7.20;;
52268;SDS011;38224;50.950;4.100;2022-09-23T05:07:04;11.93;;;6.60;;
52268;SDS011;38224;50.950;4.100;2022-09-23T05:09:29;11.48;;;7.00;;
52268;SDS011;38224;50.950;4.100;2022-09-23T05:11:55;16.17;;;7.30;;
52268;SDS011;38224;50.950;4.100;2022-09-23T05:14:20;10.85;;;6.40;;
52268;SDS011;38224;50.950;4.100;2022-09-23T05:16:45;12.10;;;6.83;;
52268;SDS011;38224;50.950;4.100;2022-09-23T05:19:10;11.83;;;6.87;;
52268;SDS011;38224;50.950;4.100;2022-09-23T05:21:37;11.38;;;6.43;;
52268;SDS011;38224;50.950;4.100;2022-09-23T05:24:03;11.73;;;7.05;;
52268;SDS011;38224;50.950;4.100;2022-09-23T05:26:29;14.48;;;6.25;;
52268;SDS011;38224;50.950;4.100;2022-09-23T05:28:55;12.20;;;6.90;;
52268;SDS011;38224;50.950;4.100;2022-09-23T05:31:21;15.93;;;6.47;;
52268;SDS011;38224;50.950;4.100;2022-09-23T05:33:48;13.75;;;6.57;;
52268;SDS011;38224;50.950;4.100;2022-09-23T05:36:15;14.82;;;6.55;;
52268;SDS011;38224;50.950;4.100;2022-09-23T05:38:41;12.68;;;6.82;;
52268;SDS011;38224;50.950;4.100;2022-09-23T05:41:09;14.07;;;7.45;;
52268;SDS011;38224;50.950;4.100;2022-09-23T05:43:35;14.43;;;7.50;;
52268;SDS011;38224;50.950;4.100;2022-09-23T05:46:05;12.88;;;6.50;;
52268;SDS011;38224;50.950;4.100;2022-09-23T05:48:31;9.80;;;6.32;;
52268;SDS011;38224;50.950;4.100;2022-09-23T05:50:56;8.55;;;6.07;;
52268;SDS011;38224;50.950;4.100;2022-09-23T05:53:22;9.00;;;6.07;;
52268;SDS011;38224;50.950;4.100;2022-09-23T05:55:47;14.27;;;7.30;;
52268;SDS011;38224;50.950;4.100;2022-09-23T05:58:12;12.82;;;6.93;;
52268;SDS011;38224;50.950;4.100;2022-09-23T06:00:38;10.63;;;6.18;;
52268;SDS011;38224;50.950;4.100;2022-09-23T06:03:05;11.18;;;7.45;;
52268;SDS011;38224;50.950;4.100;2022-09-23T06:05:30;12.55;;;6.72;;
52268;SDS011;38224;50.950;4.100;2022-09-23T06:07:55;15.75;;;7.10;;
52268;SDS011;38224;50.950;4.100;2022-09-23T06:10:21;13.32;;;6.60;;
52268;SDS011;38224;50.950;4.100;2022-09-23T06:12:46;10.83;;;6.50;;
52268;SDS011;38224;50.950;4.100;2022-09-23T06:15:11;15.50;;;6.33;;
52268;SDS011;38224;50.950;4.100;2022-09-23T06:17:37;12.25;;;6.53;;
52268;SDS011;38224;50.950;4.100;2022-09-23T06:20:02;12.47;;;6.67;;
52268;SDS011;38224;50.950;4.100;2022-09-23T06:22:27;11.90;;;7.03;;
52268;SDS011;38224;50.950;4.100;2022-09-23T06:24:53;19.88;;;6.35;;
52268;SDS011;38224;50.950;4.100;2022-09-23T06:27:18;12.67;;;6.37;;
52268;SDS011;38224;50.950;4.100;2022-09-23T06:29:43;12.75;;;6.28;;
52268;SDS011;38224;50.950;4.100;2022-09-23T06:32:09;18.15;;;6.45;;
52268;SDS011;38224;50.950;4.100;2022-09-23T06:34:34;19.75;;;6.35;;
52268;SDS011;38224;50.950;4.100;2022-09-23T06:36:59;12.40;;;5.83;;
52268;SDS011;38224;50.950;4.100;2022-09-23T06:39:25;17.40;;;6.10;;
52268;SDS011;38224;50.950;4.100;2022-09-23T06:41:50;11.57;;;6.17;;
52268;SDS011;38224;50.950;4.100;2022-09-23T06:44:15;10.90;;;6.03;;
52268;SDS011;38224;50.950;4.100;2022-09-23T06:46:40;7.85;;;5.70;;
52268;SDS011;38224;50.950;4.100;2022-09-23T06:49:06;14.13;;;6.15;;
52268;SDS011;38224;50.950;4.100;2022-09-23T06:51:31;9.20;;;5.77;;
52268;SDS011;38224;50.950;4.100;2022-09-23T06:53:56;9.10;;;5.63;;
52268;SDS011;38224;50.950;4.100;2022-09-23T06:56:22;12.67;;;6.10;;
52268;SDS011;38224;50.950;4.100;2022-09-23T06:58:47;13.15;;;5.88;;
52268;SDS011;38224;50.950;4.100;2022-09-23T07:01:15;10.70;;;5.63;;
52268;SDS011;38224;50.950;4.100;2022-09-23T07:03:41;11.60;;;5.60;;
52268;SDS011;38224;50.950;4.100;2022-09-23T07:06:06;12.80;;;5.65;;
52268;SDS011;38224;50.950;4.100;2022-09-23T07:08:32;10.60;;;4.93;;
52268;SDS011;38224;50.950;4.100;2022-09-23T07:10:58;11.35;;;5.28;;
52268;SDS011;38224;50.950;4.100;2022-09-23T07:13:24;9.43;;;5.15;;
52268;SDS011;38224;50.950;4.100;2022-09-23T07:15:50;12.15;;;5.72;;
52268;SDS011;38224;50.950;4.100;2022-09-23T07:18:16;16.55;;;5.50;;
52268;SDS011;38224;50.950;4.100;2022-09-23T07:20:41;12.65;;;6.38;;
52268;SDS011;38224;50.950;4.100;2022-09-23T07:23:06;13.50;;;6.00;;
52268;SDS011;38224;50.950;4.100;2022-09-23T07:25:32;13.40;;;6.40;;
52268;SDS011;38224;50.950;4.100;2022-09-23T07:27:58;9.82;;;6.22;;
52268;SDS011;38224;50.950;4.100;2022-09-23T07:30:23;15.40;;;5.55;;
52268;SDS011;38224;50.950;4.100;2022-09-23T07:32:49;12.57;;;5.25;;
52268;SDS011;38224;50.950;4.100;2022-09-23T07:35:14;12.93;;;5.67;;
52268;SDS011;38224;50.950;4.100;2022-09-23T07:37:39;12.07;;;5.03;;
52268;SDS011;38224;50.950;4.100;2022-09-23T07:40:04;14.55;;;4.78;;
52268;SDS011;38224;50.950;4.100;2022-09-23T07:42:30;9.80;;;4.35;;
52268;SDS011;38224;50.950;4.100;2022-09-23T07:44:55;12.13;;;5.00;;
52268;SDS011;38224;50.950;4.100;2022-09-23T07:47:21;10.93;;;5.32;;
52268;SDS011;38224;50.950;4.100;2022-09-23T07:49:47;11.88;;;5.53;;
52268;SDS011;38224;50.950;4.100;2022-09-23T07:52:12;10.23;;;5.18;;
52268;SDS011;38224;50.950;4.100;2022-09-23T07:54:38;17.63;;;5.17;;
52268;SDS011;38224;50.950;4.100;2022-09-23T07:57:03;9.13;;;4.35;;
52268;SDS011;38224;50.950;4.100;2022-09-23T07:59:28;10.63;;;5.45;;
52268;SDS011;38224;50.950;4.100;2022-09-23T08:01:54;10.90;;;5.23;;
52268;SDS011;38224;50.950;4.100;2022-09-23T08:04:21;10.07;;;5.43;;
52268;SDS011;38224;50.950;4.100;2022-09-23T08:06:53;9.02;;;5.43;;
52268;SDS011;38224;50.950;4.100;2022-09-23T08:09:19;11.00;;;5.75;;
52268;SDS011;38224;50.950;4.100;2022-09-23T08:11:45;15.45;;;5.55;;
52268;SDS011;38224;50.950;4.100;2022-09-23T08:14:10;10.63;;;5.25;;
52268;SDS011;38224;50.950;4.100;2022-09-23T08:16:37;13.35;;;5.47;;
52268;SDS011;38224;50.950;4.100;2022-09-23T08:19:02;16.77;;;5.88;;
52268;SDS011;38224;50.950;4.100;2022-09-23T08:21:27;18.07;;;5.10;;
52268;SDS011;38224;50.950;4.100;2022-09-23T08:23:53;20.15;;;5.95;;
52268;SDS011;38224;50.950;4.100;2022-09-23T08:26:19;13.10;;;5.53;;
52268;SDS011;38224;50.950;4.100;2022-09-23T08:28:44;11.03;;;5.20;;
52268;SDS011;38224;50.950;4.100;2022-09-23T08:31:09;14.30;;;4.80;;
52268;SDS011;38224;50.950;4.100;2022-09-23T08:33:36;13.05;;;4.57;;
52268;SDS011;38224;50.950;4.100;2022-09-23T08:36:01;16.35;;;5.32;;
52268;SDS011;38224;50.950;4.100;2022-09-23T08:38:27;22.73;;;5.93;;
52268;SDS011;38224;50.950;4.100;2022-09-23T08:40:54;13.98;;;5.50;;
52268;SDS011;38224;50.950;4.100;2022-09-23T08:43:26;14.43;;;5.10;;
52268;SDS011;38224;50.950;4.100;2022-09-23T08:45:52;18.40;;;5.13;;
52268;SDS011;38224;50.950;4.100;2022-09-23T08:48:22;10.77;;;4.95;;
52268;SDS011;38224;50.950;4.100;2022-09-23T08:50:50;17.83;;;5.10;;
52268;SDS011;38224;50.950;4.100;2022-09-23T08:53:23;11.98;;;5.13;;
52268;SDS011;38224;50.950;4.100;2022-09-23T08:55:50;16.05;;;5.53;;
52268;SDS011;38224;50.950;4.100;2022-09-23T09:03:29;8.32;;;5.45;;
52268;SDS011;38224;50.950;4.100;2022-09-23T09:05:57;9.23;;;4.97;;
52268;SDS011;38224;50.950;4.100;2022-09-23T09:08:32;11.75;;;4.75;;
52268;SDS011;38224;50.950;4.100;2022-09-23T09:10:59;9.82;;;4.78;;
52268;SDS011;38224;50.950;4.100;2022-09-23T09:13:32;9.90;;;5.07;;
52268;SDS011;38224;50.950;4.100;2022-09-23T09:18:30;10.00;;;5.43;;
52268;SDS011;38224;50.950;4.100;2022-09-23T09:20:58;10.65;;;5.68;;
52268;SDS011;38224;50.950;4.100;2022-09-23T09:23:36;11.48;;;6.00;;
52268;SDS011;38224;50.950;4.100;2022-09-23T09:26:04;16.17;;;5.93;;
52268;SDS011;38224;50.950;4.100;2022-09-23T09:28:40;17.10;;;6.60;;
52268;SDS011;38224;50.950;4.100;2022-09-23T09:34:01;17.38;;;6.18;;
52268;SDS011;38224;50.950;4.100;2022-09-23T09:39:15;8.85;;;4.60;;
52268;SDS011;38224;50.950;4.100;2022-09-23T09:41:44;9.30;;;5.38;;
52268;SDS011;38224;50.950;4.100;2022-09-23T09:52:11;11.10;;;5.10;;
52268;SDS011;38224;50.950;4.100;2022-09-23T09:54:36;13.68;;;4.88;;
52268;SDS011;38224;50.950;4.100;2022-09-23T09:57:03;13.57;;;4.60;;
52268;SDS011;38224;50.950;4.100;2022-09-23T09:59:29;17.52;;;5.57;;
52268;SDS011;38224;50.950;4.100;2022-09-23T10:05:00;9.50;;;5.68;;
52268;SDS011;38224;50.950;4.100;2022-09-23T10:07:27;18.58;;;5.40;;
52268;SDS011;38224;50.950;4.100;2022-09-23T10:09:52;9.77;;;4.80;;
52268;SDS011;38224;50.950;4.100;2022-09-23T10:12:19;13.50;;;4.68;;
52268;SDS011;38224;50.950;4.100;2022-09-23T10:14:45;10.85;;;3.85;;
52268;SDS011;38224;50.950;4.100;2022-09-23T10:17:16;8.57;;;3.90;;
52268;SDS011;38224;50.950;4.100;2022-09-23T10:19:46;9.48;;;5.18;;
52268;SDS011;38224;50.950;4.100;2022-09-23T10:22:23;8.05;;;4.07;;
52268;SDS011;38224;50.950;4.100;2022-09-23T10:24:49;13.98;;;3.92;;
52268;SDS011;38224;50.950;4.100;2022-09-23T10:27:24;13.30;;;4.47;;
52268;SDS011;38224;50.950;4.100;2022-09-23T10:29:50;11.48;;;5.00;;
52268;SDS011;38224;50.950;4.100;2022-09-23T10:32:26;11.67;;;4.40;;
52268;SDS011;38224;50.950;4.100;2022-09-23T10:37:43;28.58;;;5.22;;
52268;SDS011;38224;50.950;4.100;2022-09-23T10:40:13;10.10;;;4.20;;
52268;SDS011;38224;50.950;4.100;2022-09-23T10:45:48;8.10;;;3.85;;
52268;SDS011;38224;50.950;4.100;2022-09-23T10:48:51;7.15;;;3.97;;
52268;SDS011;38224;50.950;4.100;2022-09-23T10:51:21;10.27;;;4.68;;
52268;SDS011;38224;50.950;4.100;2022-09-23T10:58:54;9.05;;;4.50;;
52268;SDS011;38224;50.950;4.100;2022-09-23T11:07:02;12.15;;;4.07;;
52268;SDS011;38224;50.950;4.100;2022-09-23T11:12:36;11.43;;;4.22;;
52268;SDS011;38224;50.950;4.100;2022-09-23T11:18:04;9.75;;;4.18;;
52268;SDS011;38224;50.950;4.100;2022-09-23T11:25:59;6.35;;;3.67;;
52268;SDS011;38224;50.950;4.100;2022-09-23T11:36:07;13.88;;;4.80;;
52268;SDS011;38224;50.950;4.100;2022-09-23T11:38:38;14.25;;;4.40;;
52268;SDS011;38224;50.950;4.100;2022-09-23T11:41:13;15.38;;;5.03;;
52268;SDS011;38224;50.950;4.100;2022-09-23T11:43:41;14.13;;;4.78;;
52268;SDS011;38224;50.950;4.100;2022-09-23T11:46:15;19.73;;;5.15;;
52268;SDS011;38224;50.950;4.100;2022-09-23T11:51:37;9.60;;;4.22;;
52268;SDS011;38224;50.950;4.100;2022-09-23T11:54:05;10.93;;;4.65;;
52268;SDS011;38224;50.950;4.100;2022-09-23T11:56:37;16.13;;;5.15;;
52268;SDS011;38224;50.950;4.100;2022-09-23T12:01:35;13.93;;;4.60;;
52268;SDS011;38224;50.950;4.100;2022-09-23T12:04:05;18.85;;;5.18;;
52268;SDS011;38224;50.950;4.100;2022-09-23T12:06:34;13.68;;;4.72;;
52268;SDS011;38224;50.950;4.100;2022-09-23T12:09:01;9.75;;;4.38;;
52268;SDS011;38224;50.950;4.100;2022-09-23T12:11:41;10.13;;;4.05;;
52268;SDS011;38224;50.950;4.100;2022-09-23T12:14:25;9.75;;;4.20;;
52268;SDS011;38224;50.950;4.100;2022-09-23T12:27:27;17.55;;;5.97;;
52268;SDS011;38224;50.950;4.100;2022-09-23T12:29:58;11.33;;;4.50;;
52268;SDS011;38224;50.950;4.100;2022-09-23T12:32:25;17.55;;;5.13;;
52268;SDS011;38224;50.950;4.100;2022-09-23T12:34:51;11.93;;;5.55;;
52268;SDS011;38224;50.950;4.100;2022-09-23T12:37:27;15.13;;;5.47;;
52268;SDS011;38224;50.950;4.100;2022-09-23T12:39:57;11.13;;;5.45;;
52268;SDS011;38224;50.950;4.100;2022-09-23T12:42:23;15.30;;;5.57;;
52268;SDS011;38224;50.950;4.100;2022-09-23T12:44:48;8.60;;;5.03;;
52268;SDS011;38224;50.950;4.100;2022-09-23T12:49:49;9.52;;;5.70;;
52268;SDS011;38224;50.950;4.100;2022-09-23T12:54:41;22.27;;;5.57;;
52268;SDS011;38224;50.950;4.100;2022-09-23T13:02:28;10.98;;;5.57;;
52268;SDS011;38224;50.950;4.100;2022-09-23T13:07:46;12.88;;;5.57;;
52268;SDS011;38224;50.950;4.100;2022-09-23T13:10:14;17.90;;;6.00;;
52268;SDS011;38224;50.950;4.100;2022-09-23T13:12:41;19.73;;;5.78;;
52268;SDS011;38224;50.950;4.100;2022-09-23T13:15:49;14.15;;;5.75;;
52268;SDS011;38224;50.950;4.100;2022-09-23T13:20:39;11.38;;;5.82;;
52268;SDS011;38224;50.950;4.100;2022-09-23T13:25:55;16.27;;;6.40;;
52268;SDS011;38224;50.950;4.100;2022-09-23T13:31:05;11.10;;;5.22;;
52268;SDS011;38224;50.950;4.100;2022-09-23T13:33:41;15.73;;;5.55;;
52268;SDS011;38224;50.950;4.100;2022-09-23T13:36:17;18.08;;;7.85;;
52268;SDS011;38224;50.950;4.100;2022-09-23T13:38:43;21.30;;;6.38;;
52268;SDS011;38224;50.950;4.100;2022-09-23T13:41:14;13.55;;;5.93;;
52268;SDS011;38224;50.950;4.100;2022-09-23T13:43:42;28.05;;;7.05;;
52268;SDS011;38224;50.950;4.100;2022-09-23T13:46:12;29.73;;;6.70;;
52268;SDS011;38224;50.950;4.100;2022-09-23T13:48:40;16.92;;;8.23;;
52268;SDS011;38224;50.950;4.100;2022-09-23T13:51:08;14.65;;;6.68;;
52268;SDS011;38224;50.950;4.100;2022-09-23T13:53:34;14.48;;;6.10;;
52268;SDS011;38224;50.950;4.100;2022-09-23T13:56:04;14.32;;;5.82;;
52268;SDS011;38224;50.950;4.100;2022-09-23T13:58:30;15.43;;;7.72;;
52268;SDS011;38224;50.950;4.100;2022-09-23T14:00:55;22.17;;;6.22;;
52268;SDS011;38224;50.950;4.100;2022-09-23T14:05:46;10.07;;;5.50;;
52268;SDS011;38224;50.950;4.100;2022-09-23T14:08:12;12.38;;;6.03;;
52268;SDS011;38224;50.950;4.100;2022-09-23T14:10:37;15.77;;;4.97;;
52268;SDS011;38224;50.950;4.100;2022-09-23T14:13:17;13.65;;;5.47;;
52268;SDS011;38224;50.950;4.100;2022-09-23T14:15:43;14.38;;;5.95;;
52268;SDS011;38224;50.950;4.100;2022-09-23T14:18:10;13.90;;;5.97;;
52268;SDS011;38224;50.950;4.100;2022-09-23T14:20:44;9.85;;;5.40;;
52268;SDS011;38224;50.950;4.100;2022-09-23T14:23:11;11.45;;;5.40;;
52268;SDS011;38224;50.950;4.100;2022-09-23T14:25:37;18.95;;;5.57;;
52268;SDS011;38224;50.950;4.100;2022-09-23T14:28:04;12.13;;;5.32;;
52268;SDS011;38224;50.950;4.100;2022-09-23T14:30:29;10.20;;;6.10;;
52268;SDS011;38224;50.950;4.100;2022-09-23T14:32:54;14.65;;;6.05;;
52268;SDS011;38224;50.950;4.100;2022-09-23T14:35:21;19.38;;;6.32;;
52268;SDS011;38224;50.950;4.100;2022-09-23T14:37:50;15.20;;;6.80;;
52268;SDS011;38224;50.950;4.100;2022-09-23T14:40:36;15.70;;;6.93;;
52268;SDS011;38224;50.950;4.100;2022-09-23T14:43:09;15.63;;;6.88;;
52268;SDS011;38224;50.950;4.100;2022-09-23T14:45:39;13.70;;;6.25;;
52268;SDS011;38224;50.950;4.100;2022-09-23T14:48:09;14.07;;;7.00;;
52268;SDS011;38224;50.950;4.100;2022-09-23T14:50:36;19.50;;;7.25;;
52268;SDS011;38224;50.950;4.100;2022-09-23T14:55:55;17.10;;;7.57;;
52268;SDS011;38224;50.950;4.100;2022-09-23T14:58:41;22.90;;;9.27;;
52268;SDS011;38224;50.950;4.100;2022-09-23T15:01:22;14.90;;;7.80;;
52268;SDS011;38224;50.950;4.100;2022-09-23T15:03:48;12.15;;;6.65;;
52268;SDS011;38224;50.950;4.100;2022-09-23T15:06:13;15.45;;;6.57;;
52268;SDS011;38224;50.950;4.100;2022-09-23T15:08:40;20.00;;;5.70;;
52268;SDS011;38224;50.950;4.100;2022-09-23T15:11:08;13.77;;;6.75;;
52268;SDS011;38224;50.950;4.100;2022-09-23T15:13:35;16.03;;;6.40;;
52268;SDS011;38224;50.950;4.100;2022-09-23T15:16:02;13.07;;;6.47;;
52268;SDS011;38224;50.950;4.100;2022-09-23T15:18:35;16.52;;;6.68;;
52268;SDS011;38224;50.950;4.100;2022-09-23T15:21:01;15.70;;;6.40;;
52268;SDS011;38224;50.950;4.100;2022-09-23T15:25:56;16.75;;;6.78;;
52268;SDS011;38224;50.950;4.100;2022-09-23T15:28:23;14.17;;;7.07;;
52268;SDS011;38224;50.950;4.100;2022-09-23T15:30:49;11.40;;;6.70;;
52268;SDS011;38224;50.950;4.100;2022-09-23T15:33:14;17.63;;;6.67;;
52268;SDS011;38224;50.950;4.100;2022-09-23T15:35:47;12.75;;;6.50;;
52268;SDS011;38224;50.950;4.100;2022-09-23T15:38:12;14.88;;;6.35;;
52268;SDS011;38224;50.950;4.100;2022-09-23T15:40:38;13.75;;;6.97;;
52268;SDS011;38224;50.950;4.100;2022-09-23T15:45:43;14.15;;;7.13;;
52268;SDS011;38224;50.950;4.100;2022-09-23T15:48:10;14.55;;;6.97;;
52268;SDS011;38224;50.950;4.100;2022-09-23T15:50:36;17.45;;;7.22;;
52268;SDS011;38224;50.950;4.100;2022-09-23T15:53:02;23.80;;;8.48;;
52268;SDS011;38224;50.950;4.100;2022-09-23T15:55:28;15.38;;;8.05;;
52268;SDS011;38224;50.950;4.100;2022-09-23T15:57:53;14.77;;;6.73;;
52268;SDS011;38224;50.950;4.100;2022-09-23T16:00:19;13.52;;;7.75;;
52268;SDS011;38224;50.950;4.100;2022-09-23T16:02:45;18.23;;;8.00;;
52268;SDS011;38224;50.950;4.100;2022-09-23T16:05:18;22.70;;;8.15;;
52268;SDS011;38224;50.950;4.100;2022-09-23T16:07:46;15.05;;;7.80;;
52268;SDS011;38224;50.950;4.100;2022-09-23T16:10:12;12.85;;;8.68;;
52268;SDS011;38224;50.950;4.100;2022-09-23T16:12:37;17.05;;;9.32;;
52268;SDS011;38224;50.950;4.100;2022-09-23T16:15:04;13.23;;;9.55;;
52268;SDS011;38224;50.950;4.100;2022-09-23T16:17:34;20.70;;;10.45;;
52268;SDS011;38224;50.950;4.100;2022-09-23T16:20:00;19.42;;;10.10;;
52268;SDS011;38224;50.950;4.100;2022-09-23T16:22:26;18.25;;;10.15;;
52268;SDS011;38224;50.950;4.100;2022-09-23T16:24:51;21.30;;;10.80;;
52268;SDS011;38224;50.950;4.100;2022-09-23T16:27:16;25.60;;;12.23;;
52268;SDS011;38224;50.950;4.100;2022-09-23T16:29:42;28.83;;;13.43;;
52268;SDS011;38224;50.950;4.100;2022-09-23T16:32:08;26.10;;;13.13;;
52268;SDS011;38224;50.950;4.100;2022-09-23T16:34:33;22.80;;;12.23;;
52268;SDS011;38224;50.950;4.100;2022-09-23T16:36:58;22.03;;;10.80;;
52268;SDS011;38224;50.950;4.100;2022-09-23T16:39:24;16.57;;;9.57;;
52268;SDS011;38224;50.950;4.100;2022-09-23T16:41:49;18.03;;;10.17;;
52268;SDS011;38224;50.950;4.100;2022-09-23T16:44:14;18.90;;;10.50;;
52268;SDS011;38224;50.950;4.100;2022-09-23T16:46:40;22.40;;;11.95;;
52268;SDS011;38224;50.950;4.100;2022-09-23T16:49:07;21.33;;;11.85;;
52268;SDS011;38224;50.950;4.100;2022-09-23T16:51:32;25.02;;;13.32;;
52268;SDS011;38224;50.950;4.100;2022-09-23T16:54:04;30.35;;;15.45;;
52268;SDS011;38224;50.950;4.100;2022-09-23T16:56:31;21.52;;;12.35;;
52268;SDS011;38224;50.950;4.100;2022-09-23T16:58:56;22.87;;;12.87;;
52268;SDS011;38224;50.950;4.100;2022-09-23T17:01:22;47.60;;;24.70;;
52268;SDS011;38224;50.950;4.100;2022-09-23T17:04:06;42.33;;;22.63;;
52268;SDS011;38224;50.950;4.100;2022-09-23T17:06:34;42.58;;;26.05;;
52268;SDS011;38224;50.950;4.100;2022-09-23T17:08:59;32.88;;;17.48;;
52268;SDS011;38224;50.950;4.100;2022-09-23T17:11:24;29.58;;;19.58;;
52268;SDS011;38224;50.950;4.100;2022-09-23T17:13:50;30.63;;;16.27;;
52268;SDS011;38224;50.950;4.100;2022-09-23T17:18:46;24.08;;;14.75;;
52268;SDS011;38224;50.950;4.100;2022-09-23T17:21:12;25.77;;;16.10;;